sensor_id;sensor_type;location;lat;lon;timestamp;temperature;humidity
66728;DHT22;53641;44.274;19.890;2023-12-04T00:00:58;1.70;79.30
66728;DHT22;53641;44.274;19.890;2023-12-04T00:03:23;1.60;79.20
66728;DHT22;53641;44.274;19.890;2023-12-04T00:05:49;1.60;79.30
66728;DHT22;53641;44.274;19.890;2023-12-04T00:08:18;1.60;79.10
66728;DHT22;53641;44.274;19.890;2023-12-04T00:10:43;1.60;79.20
66728;DHT22;53641;44.274;19.890;2023-12-04T00:13:11;1.60;78.70
66728;DHT22;53641;44.274;19.890;2023-12-04T00:15:38;1.60;78.70
66728;DHT22;53641;44.274;19.890;2023-12-04T00:18:03;1.60;79.10
66728;DHT22;53641;44.274;19.890;2023-12-04T00:20:29;1.50;79.10
66728;DHT22;53641;44.274;19.890;2023-12-04T00:22:55;2.40;79.80
66728;DHT22;53641;44.274;19.890;2023-12-04T00:25:21;1.50;79.40
66728;DHT22;53641;44.274;19.890;2023-12-04T00:27:46;1.40;79.40
66728;DHT22;53641;44.274;19.890;2023-12-04T00:30:12;1.40;80.00
66728;DHT22;53641;44.274;19.890;2023-12-04T00:32:38;1.40;80.20
66728;DHT22;53641;44.274;19.890;2023-12-04T00:35:03;1.40;79.90
66728;DHT22;53641;44.274;19.890;2023-12-04T00:37:29;1.40;80.10
66728;DHT22;53641;44.274;19.890;2023-12-04T00:39:55;1.10;80.70
66728;DHT22;53641;44.274;19.890;2023-12-04T00:42:20;1.30;80.80
66728;DHT22;53641;44.274;19.890;2023-12-04T00:44:46;1.20;80.40
66728;DHT22;53641;44.274;19.890;2023-12-04T00:47:12;1.60;80.60
66728;DHT22;53641;44.274;19.890;2023-12-04T00:49:37;1.30;80.60
66728;DHT22;53641;44.274;19.890;2023-12-04T00:52:03;1.30;80.50
66728;DHT22;53641;44.274;19.890;2023-12-04T00:54:29;1.30;80.40
66728;DHT22;53641;44.274;19.890;2023-12-04T00:56:54;1.20;80.60
66728;DHT22;53641;44.274;19.890;2023-12-04T00:59:20;1.10;80.60
66728;DHT22;53641;44.274;19.890;2023-12-04T01:01:46;2.50;81.70
66728;DHT22;53641;44.274;19.890;2023-12-04T01:04:11;2.30;81.50
66728;DHT22;53641;44.274;19.890;2023-12-04T01:06:37;1.00;80.80
66728;DHT22;53641;44.274;19.890;2023-12-04T01:09:03;1.10;81.20
66728;DHT22;53641;44.274;19.890;2023-12-04T01:11:28;1.00;81.10
66728;DHT22;53641;44.274;19.890;2023-12-04T01:13:54;1.00;81.00
66728;DHT22;53641;44.274;19.890;2023-12-04T01:16:19;1.10;81.10
66728;DHT22;53641;44.274;19.890;2023-12-04T01:18:45;1.10;81.00
66728;DHT22;53641;44.274;19.890;2023-12-04T01:21:11;0.90;81.50
66728;DHT22;53641;44.274;19.890;2023-12-04T01:23:36;0.80;81.30
66728;DHT22;53641;44.274;19.890;2023-12-04T01:26:03;0.80;81.40
66728;DHT22;53641;44.274;19.890;2023-12-04T01:28:29;0.70;81.30
66728;DHT22;53641;44.274;19.890;2023-12-04T01:30:54;0.70;81.30
66728;DHT22;53641;44.274;19.890;2023-12-04T01:33:20;0.80;81.30
66728;DHT22;53641;44.274;19.890;2023-12-04T01:35:46;0.80;81.50
66728;DHT22;53641;44.274;19.890;2023-12-04T01:38:11;0.80;81.40
66728;DHT22;53641;44.274;19.890;2023-12-04T01:40:37;0.90;81.30
66728;DHT22;53641;44.274;19.890;2023-12-04T01:43:03;0.80;81.50
66728;DHT22;53641;44.274;19.890;2023-12-04T01:45:28;0.80;80.80
66728;DHT22;53641;44.274;19.890;2023-12-04T01:47:54;0.80;80.60
66728;DHT22;53641;44.274;19.890;2023-12-04T01:50:20;0.70;80.60
66728;DHT22;53641;44.274;19.890;2023-12-04T01:52:45;0.80;80.80
66728;DHT22;53641;44.274;19.890;2023-12-04T01:55:12;0.70;80.60
66728;DHT22;53641;44.274;19.890;2023-12-04T01:57:37;0.60;80.90
66728;DHT22;53641;44.274;19.890;2023-12-04T02:00:03;0.60;80.80
66728;DHT22;53641;44.274;19.890;2023-12-04T02:02:31;0.70;81.00
66728;DHT22;53641;44.274;19.890;2023-12-04T02:04:57;0.60;80.90
66728;DHT22;53641;44.274;19.890;2023-12-04T02:07:23;0.50;81.00
66728;DHT22;53641;44.274;19.890;2023-12-04T02:09:48;0.50;81.20
66728;DHT22;53641;44.274;19.890;2023-12-04T02:12:14;0.50;81.50
66728;DHT22;53641;44.274;19.890;2023-12-04T02:14:40;0.50;81.60
66728;DHT22;53641;44.274;19.890;2023-12-04T02:17:06;0.40;81.50
66728;DHT22;53641;44.274;19.890;2023-12-04T02:19:32;0.70;82.10
66728;DHT22;53641;44.274;19.890;2023-12-04T02:21:58;0.60;81.30
66728;DHT22;53641;44.274;19.890;2023-12-04T02:24:24;0.50;81.00
66728;DHT22;53641;44.274;19.890;2023-12-04T02:26:52;0.50;81.30
66728;DHT22;53641;44.274;19.890;2023-12-04T02:29:23;0.00;81.00
66728;DHT22;53641;44.274;19.890;2023-12-04T02:31:52;0.30;81.20
66728;DHT22;53641;44.274;19.890;2023-12-04T02:34:19;0.50;81.00
66728;DHT22;53641;44.274;19.890;2023-12-04T02:36:45;0.40;81.30
66728;DHT22;53641;44.274;19.890;2023-12-04T02:39:12;0.40;81.50
66728;DHT22;53641;44.274;19.890;2023-12-04T02:41:38;0.40;82.10
66728;DHT22;53641;44.274;19.890;2023-12-04T02:44:03;0.10;81.20
66728;DHT22;53641;44.274;19.890;2023-12-04T02:46:29;0.30;82.50
66728;DHT22;53641;44.274;19.890;2023-12-04T02:48:54;-0.10;81.90
66728;DHT22;53641;44.274;19.890;2023-12-04T02:51:20;0.20;81.70
66728;DHT22;53641;44.274;19.890;2023-12-04T02:53:46;0.30;81.70
66728;DHT22;53641;44.274;19.890;2023-12-04T02:56:11;0.20;81.30
66728;DHT22;53641;44.274;19.890;2023-12-04T02:58:37;0.10;81.80
66728;DHT22;53641;44.274;19.890;2023-12-04T03:01:10;0.00;81.70
66728;DHT22;53641;44.274;19.890;2023-12-04T03:03:35;0.30;81.90
66728;DHT22;53641;44.274;19.890;2023-12-04T03:06:01;0.20;81.60
66728;DHT22;53641;44.274;19.890;2023-12-04T03:08:27;0.10;81.30
66728;DHT22;53641;44.274;19.890;2023-12-04T03:10:52;0.10;81.60
66728;DHT22;53641;44.274;19.890;2023-12-04T03:13:18;0.10;81.80
66728;DHT22;53641;44.274;19.890;2023-12-04T03:15:44;0.00;82.30
66728;DHT22;53641;44.274;19.890;2023-12-04T03:18:10;0.00;81.90
66728;DHT22;53641;44.274;19.890;2023-12-04T03:20:35;0.10;82.10
66728;DHT22;53641;44.274;19.890;2023-12-04T03:23:01;-0.10;82.30
66728;DHT22;53641;44.274;19.890;2023-12-04T03:25:27;0.00;82.30
66728;DHT22;53641;44.274;19.890;2023-12-04T03:27:52;-0.10;81.70
66728;DHT22;53641;44.274;19.890;2023-12-04T03:30:18;0.00;82.20
66728;DHT22;53641;44.274;19.890;2023-12-04T03:32:45;0.40;82.10
66728;DHT22;53641;44.274;19.890;2023-12-04T03:35:11;0.10;81.80
66728;DHT22;53641;44.274;19.890;2023-12-04T03:37:36;0.10;81.40
66728;DHT22;53641;44.274;19.890;2023-12-04T03:40:02;0.00;81.20
66728;DHT22;53641;44.274;19.890;2023-12-04T03:42:28;0.00;81.40
66728;DHT22;53641;44.274;19.890;2023-12-04T03:44:54;-0.10;81.40
66728;DHT22;53641;44.274;19.890;2023-12-04T03:47:19;-0.10;81.20
66728;DHT22;53641;44.274;19.890;2023-12-04T03:49:45;0.00;81.70
66728;DHT22;53641;44.274;19.890;2023-12-04T03:52:11;-0.10;81.30
66728;DHT22;53641;44.274;19.890;2023-12-04T03:54:36;-0.10;81.60
66728;DHT22;53641;44.274;19.890;2023-12-04T03:57:02;-0.20;81.90
66728;DHT22;53641;44.274;19.890;2023-12-04T03:59:28;-0.10;81.50
66728;DHT22;53641;44.274;19.890;2023-12-04T04:01:53;-0.20;81.60
66728;DHT22;53641;44.274;19.890;2023-12-04T04:04:19;-0.40;81.30
66728;DHT22;53641;44.274;19.890;2023-12-04T04:06:45;-0.40;81.60
66728;DHT22;53641;44.274;19.890;2023-12-04T04:09:13;-0.20;81.20
66728;DHT22;53641;44.274;19.890;2023-12-04T04:11:38;-0.30;81.70
66728;DHT22;53641;44.274;19.890;2023-12-04T04:14:04;-0.40;82.10
66728;DHT22;53641;44.274;19.890;2023-12-04T04:16:30;-0.40;82.30
66728;DHT22;53641;44.274;19.890;2023-12-04T04:18:55;-0.30;81.80
66728;DHT22;53641;44.274;19.890;2023-12-04T04:21:21;-0.30;81.60
66728;DHT22;53641;44.274;19.890;2023-12-04T04:23:47;-0.30;81.60
66728;DHT22;53641;44.274;19.890;2023-12-04T04:26:13;-0.30;81.50
66728;DHT22;53641;44.274;19.890;2023-12-04T04:28:38;-0.50;81.50
66728;DHT22;53641;44.274;19.890;2023-12-04T04:31:04;-0.40;81.60
66728;DHT22;53641;44.274;19.890;2023-12-04T04:33:33;-0.60;81.30
66728;DHT22;53641;44.274;19.890;2023-12-04T04:35:59;-0.50;81.80
66728;DHT22;53641;44.274;19.890;2023-12-04T04:38:25;-0.40;81.90
66728;DHT22;53641;44.274;19.890;2023-12-04T04:40:50;-0.40;81.70
66728;DHT22;53641;44.274;19.890;2023-12-04T04:43:18;-0.70;81.30
66728;DHT22;53641;44.274;19.890;2023-12-04T04:45:44;-0.60;80.90
66728;DHT22;53641;44.274;19.890;2023-12-04T04:48:09;-0.50;81.20
66728;DHT22;53641;44.274;19.890;2023-12-04T04:50:35;-0.50;81.30
66728;DHT22;53641;44.274;19.890;2023-12-04T04:53:01;0.30;82.00
66728;DHT22;53641;44.274;19.890;2023-12-04T04:55:26;-0.90;81.40
66728;DHT22;53641;44.274;19.890;2023-12-04T04:57:52;-1.10;81.30
66728;DHT22;53641;44.274;19.890;2023-12-04T05:00:18;-0.70;81.30
66728;DHT22;53641;44.274;19.890;2023-12-04T05:02:43;-0.60;81.60
66728;DHT22;53641;44.274;19.890;2023-12-04T05:05:09;-0.60;81.40
66728;DHT22;53641;44.274;19.890;2023-12-04T05:07:35;-0.50;81.60
66728;DHT22;53641;44.274;19.890;2023-12-04T05:10:00;-0.60;81.70
66728;DHT22;53641;44.274;19.890;2023-12-04T05:12:26;-0.60;81.90
66728;DHT22;53641;44.274;19.890;2023-12-04T05:14:51;-0.60;81.50
66728;DHT22;53641;44.274;19.890;2023-12-04T05:17:17;-0.60;81.70
66728;DHT22;53641;44.274;19.890;2023-12-04T05:19:43;-0.50;81.40
66728;DHT22;53641;44.274;19.890;2023-12-04T05:22:08;-0.60;81.30
66728;DHT22;53641;44.274;19.890;2023-12-04T05:24:34;-0.60;81.30
66728;DHT22;53641;44.274;19.890;2023-12-04T05:27:01;-0.60;81.00
66728;DHT22;53641;44.274;19.890;2023-12-04T05:29:28;-0.60;81.70
66728;DHT22;53641;44.274;19.890;2023-12-04T05:31:53;-0.50;82.10
66728;DHT22;53641;44.274;19.890;2023-12-04T05:34:19;-0.70;81.00
66728;DHT22;53641;44.274;19.890;2023-12-04T05:36:44;-0.70;82.00
66728;DHT22;53641;44.274;19.890;2023-12-04T05:39:10;-0.90;81.80
66728;DHT22;53641;44.274;19.890;2023-12-04T05:41:36;-0.80;82.30
66728;DHT22;53641;44.274;19.890;2023-12-04T05:44:01;-0.90;82.20
66728;DHT22;53641;44.274;19.890;2023-12-04T05:46:27;-0.90;82.40
66728;DHT22;53641;44.274;19.890;2023-12-04T05:48:53;-0.90;82.40
66728;DHT22;53641;44.274;19.890;2023-12-04T05:51:18;-1.00;82.40
66728;DHT22;53641;44.274;19.890;2023-12-04T05:53:44;-1.00;82.60
66728;DHT22;53641;44.274;19.890;2023-12-04T05:56:10;-1.00;82.60
66728;DHT22;53641;44.274;19.890;2023-12-04T05:58:36;-0.60;82.50
66728;DHT22;53641;44.274;19.890;2023-12-04T06:01:01;-1.20;83.30
66728;DHT22;53641;44.274;19.890;2023-12-04T06:03:28;-1.40;83.30
66728;DHT22;53641;44.274;19.890;2023-12-04T06:05:53;-1.40;84.20
66728;DHT22;53641;44.274;19.890;2023-12-04T06:08:19;-1.50;83.90
66728;DHT22;53641;44.274;19.890;2023-12-04T06:10:45;-1.50;83.90
66728;DHT22;53641;44.274;19.890;2023-12-04T06:13:11;-1.40;84.40
66728;DHT22;53641;44.274;19.890;2023-12-04T06:15:37;-1.60;83.80
66728;DHT22;53641;44.274;19.890;2023-12-04T06:18:02;-0.80;84.60
66728;DHT22;53641;44.274;19.890;2023-12-04T06:20:29;-1.60;84.00
66728;DHT22;53641;44.274;19.890;2023-12-04T06:22:54;-1.60;83.80
66728;DHT22;53641;44.274;19.890;2023-12-04T06:25:20;-1.60;83.90
66728;DHT22;53641;44.274;19.890;2023-12-04T06:27:47;-1.70;84.00
66728;DHT22;53641;44.274;19.890;2023-12-04T06:30:13;-1.70;83.70
66728;DHT22;53641;44.274;19.890;2023-12-04T06:32:39;-1.70;84.10
66728;DHT22;53641;44.274;19.890;2023-12-04T06:35:05;-1.60;84.40
66728;DHT22;53641;44.274;19.890;2023-12-04T06:37:31;-1.50;84.00
66728;DHT22;53641;44.274;19.890;2023-12-04T06:39:58;-1.50;83.20
66728;DHT22;53641;44.274;19.890;2023-12-04T06:42:25;-1.50;83.90
66728;DHT22;53641;44.274;19.890;2023-12-04T06:44:51;-1.10;83.80
66728;DHT22;53641;44.274;19.890;2023-12-04T06:47:17;-1.30;84.30
66728;DHT22;53641;44.274;19.890;2023-12-04T06:49:43;-1.10;83.20
66728;DHT22;53641;44.274;19.890;2023-12-04T06:52:09;-0.80;83.00
66728;DHT22;53641;44.274;19.890;2023-12-04T06:54:35;-0.70;82.00
66728;DHT22;53641;44.274;19.890;2023-12-04T06:57:00;-0.60;82.10
66728;DHT22;53641;44.274;19.890;2023-12-04T06:59:26;-0.50;82.00
66728;DHT22;53641;44.274;19.890;2023-12-04T07:01:53;-0.40;81.30
66728;DHT22;53641;44.274;19.890;2023-12-04T07:04:18;-0.40;81.00
66728;DHT22;53641;44.274;19.890;2023-12-04T07:06:46;-0.30;81.20
66728;DHT22;53641;44.274;19.890;2023-12-04T07:09:12;0.00;80.90
66728;DHT22;53641;44.274;19.890;2023-12-04T07:11:37;0.10;80.30
66728;DHT22;53641;44.274;19.890;2023-12-04T07:14:06;0.20;79.80
66728;DHT22;53641;44.274;19.890;2023-12-04T07:16:38;0.30;79.50
66728;DHT22;53641;44.274;19.890;2023-12-04T07:19:03;0.30;78.80
66728;DHT22;53641;44.274;19.890;2023-12-04T07:21:30;0.50;78.80
66728;DHT22;53641;44.274;19.890;2023-12-04T07:23:55;0.90;78.00
66728;DHT22;53641;44.274;19.890;2023-12-04T07:26:21;1.50;76.80
66728;DHT22;53641;44.274;19.890;2023-12-04T07:28:50;1.80;75.70
66728;DHT22;53641;44.274;19.890;2023-12-04T07:31:16;2.30;75.00
66728;DHT22;53641;44.274;19.890;2023-12-04T07:33:41;2.70;73.60
66728;DHT22;53641;44.274;19.890;2023-12-04T07:36:07;2.90;73.00
66728;DHT22;53641;44.274;19.890;2023-12-04T07:38:33;2.80;71.80
66728;DHT22;53641;44.274;19.890;2023-12-04T07:41:02;3.40;71.50
66728;DHT22;53641;44.274;19.890;2023-12-04T07:43:28;3.70;70.80
66728;DHT22;53641;44.274;19.890;2023-12-04T07:45:57;3.80;70.30
66728;DHT22;53641;44.274;19.890;2023-12-04T07:48:23;3.80;70.60
66728;DHT22;53641;44.274;19.890;2023-12-04T07:50:48;4.00;70.30
66728;DHT22;53641;44.274;19.890;2023-12-04T07:53:14;3.90;69.60
66728;DHT22;53641;44.274;19.890;2023-12-04T07:55:40;4.00;69.70
66728;DHT22;53641;44.274;19.890;2023-12-04T07:58:05;4.50;69.80
66728;DHT22;53641;44.274;19.890;2023-12-04T08:00:31;4.50;67.90
66728;DHT22;53641;44.274;19.890;2023-12-04T08:02:57;4.60;67.90
66728;DHT22;53641;44.274;19.890;2023-12-04T08:05:22;4.60;67.10
66728;DHT22;53641;44.274;19.890;2023-12-04T08:07:48;4.60;67.70
66728;DHT22;53641;44.274;19.890;2023-12-04T08:10:14;4.60;67.40
66728;DHT22;53641;44.274;19.890;2023-12-04T08:12:40;4.70;67.30
66728;DHT22;53641;44.274;19.890;2023-12-04T08:15:05;4.90;67.20
66728;DHT22;53641;44.274;19.890;2023-12-04T08:17:31;4.70;67.40
66728;DHT22;53641;44.274;19.890;2023-12-04T08:19:57;4.40;68.60
66728;DHT22;53641;44.274;19.890;2023-12-04T08:22:23;4.10;70.60
66728;DHT22;53641;44.274;19.890;2023-12-04T08:24:48;4.00;72.00
66728;DHT22;53641;44.274;19.890;2023-12-04T08:27:14;3.70;72.70
66728;DHT22;53641;44.274;19.890;2023-12-04T08:29:40;3.70;73.40
66728;DHT22;53641;44.274;19.890;2023-12-04T08:32:06;3.00;74.50
66728;DHT22;53641;44.274;19.890;2023-12-04T08:34:31;2.70;75.00
66728;DHT22;53641;44.274;19.890;2023-12-04T08:36:57;3.20;76.10
66728;DHT22;53641;44.274;19.890;2023-12-04T08:39:23;2.60;76.80
66728;DHT22;53641;44.274;19.890;2023-12-04T08:41:52;2.30;76.00
66728;DHT22;53641;44.274;19.890;2023-12-04T08:44:18;2.20;76.70
66728;DHT22;53641;44.274;19.890;2023-12-04T08:46:44;2.20;76.80
66728;DHT22;53641;44.274;19.890;2023-12-04T08:49:09;1.90;77.30
66728;DHT22;53641;44.274;19.890;2023-12-04T08:51:35;2.10;77.20
66728;DHT22;53641;44.274;19.890;2023-12-04T08:54:01;2.30;77.10
66728;DHT22;53641;44.274;19.890;2023-12-04T08:56:40;2.40;76.80
66728;DHT22;53641;44.274;19.890;2023-12-04T08:59:06;2.40;75.70
66728;DHT22;53641;44.274;19.890;2023-12-04T09:01:32;2.30;76.80
66728;DHT22;53641;44.274;19.890;2023-12-04T09:03:57;2.30;76.20
66728;DHT22;53641;44.274;19.890;2023-12-04T09:06:23;2.40;75.70
66728;DHT22;53641;44.274;19.890;2023-12-04T09:08:49;2.60;75.70
66728;DHT22;53641;44.274;19.890;2023-12-04T09:11:14;2.80;75.30
66728;DHT22;53641;44.274;19.890;2023-12-04T09:13:40;2.80;74.60
66728;DHT22;53641;44.274;19.890;2023-12-04T09:16:06;2.80;73.50
66728;DHT22;53641;44.274;19.890;2023-12-04T09:18:32;2.90;73.40
66728;DHT22;53641;44.274;19.890;2023-12-04T09:20:57;3.00;73.50
66728;DHT22;53641;44.274;19.890;2023-12-04T09:23:23;2.80;73.70
66728;DHT22;53641;44.274;19.890;2023-12-04T09:25:49;3.20;74.30
66728;DHT22;53641;44.274;19.890;2023-12-04T09:28:20;3.20;73.30
66728;DHT22;53641;44.274;19.890;2023-12-04T09:30:45;3.30;72.50
66728;DHT22;53641;44.274;19.890;2023-12-04T09:33:14;3.70;73.30
66728;DHT22;53641;44.274;19.890;2023-12-04T09:35:39;4.10;70.60
66728;DHT22;53641;44.274;19.890;2023-12-04T09:38:08;4.20;70.60
66728;DHT22;53641;44.274;19.890;2023-12-04T09:40:33;4.00;69.90
66728;DHT22;53641;44.274;19.890;2023-12-04T09:43:02;3.70;70.30
66728;DHT22;53641;44.274;19.890;2023-12-04T09:45:30;3.70;71.20
66728;DHT22;53641;44.274;19.890;2023-12-04T09:47:57;3.50;71.10
66728;DHT22;53641;44.274;19.890;2023-12-04T09:50:29;3.80;71.40
66728;DHT22;53641;44.274;19.890;2023-12-04T09:52:55;3.80;70.80
66728;DHT22;53641;44.274;19.890;2023-12-04T09:55:28;3.90;71.60
66728;DHT22;53641;44.274;19.890;2023-12-04T09:57:54;4.30;71.70
66728;DHT22;53641;44.274;19.890;2023-12-04T10:00:20;3.80;70.70
66728;DHT22;53641;44.274;19.890;2023-12-04T10:02:47;3.60;70.70
66728;DHT22;53641;44.274;19.890;2023-12-04T10:05:13;3.40;70.70
66728;DHT22;53641;44.274;19.890;2023-12-04T10:07:38;3.50;71.90
66728;DHT22;53641;44.274;19.890;2023-12-04T10:10:04;3.80;71.20
66728;DHT22;53641;44.274;19.890;2023-12-04T10:12:35;4.00;69.80
66728;DHT22;53641;44.274;19.890;2023-12-04T10:15:05;4.10;68.40
66728;DHT22;53641;44.274;19.890;2023-12-04T10:17:34;4.20;68.70
66728;DHT22;53641;44.274;19.890;2023-12-04T10:20:06;4.20;68.60
66728;DHT22;53641;44.274;19.890;2023-12-04T10:22:54;4.20;69.40
66728;DHT22;53641;44.274;19.890;2023-12-04T10:25:20;4.20;69.70
66728;DHT22;53641;44.274;19.890;2023-12-04T10:27:46;4.20;69.10
66728;DHT22;53641;44.274;19.890;2023-12-04T10:30:26;4.20;67.70
66728;DHT22;53641;44.274;19.890;2023-12-04T10:32:55;4.30;66.90
66728;DHT22;53641;44.274;19.890;2023-12-04T10:35:21;4.40;68.10
66728;DHT22;53641;44.274;19.890;2023-12-04T10:37:48;4.30;69.10
66728;DHT22;53641;44.274;19.890;2023-12-04T10:40:22;4.10;69.20
66728;DHT22;53641;44.274;19.890;2023-12-04T10:42:47;4.00;69.00
66728;DHT22;53641;44.274;19.890;2023-12-04T10:45:13;3.90;70.00
66728;DHT22;53641;44.274;19.890;2023-12-04T10:47:39;3.90;69.90
66728;DHT22;53641;44.274;19.890;2023-12-04T10:50:06;3.90;70.10
66728;DHT22;53641;44.274;19.890;2023-12-04T10:52:33;3.90;70.40
66728;DHT22;53641;44.274;19.890;2023-12-04T10:54:59;4.20;70.10
66728;DHT22;53641;44.274;19.890;2023-12-04T10:57:33;4.60;68.40
66728;DHT22;53641;44.274;19.890;2023-12-04T11:00:02;4.60;69.10
66728;DHT22;53641;44.274;19.890;2023-12-04T11:02:28;3.60;68.50
66728;DHT22;53641;44.274;19.890;2023-12-04T11:04:55;4.30;68.40
66728;DHT22;53641;44.274;19.890;2023-12-04T11:07:21;4.30;68.90
66728;DHT22;53641;44.274;19.890;2023-12-04T11:09:51;4.80;68.40
66728;DHT22;53641;44.274;19.890;2023-12-04T11:12:18;4.30;68.70
66728;DHT22;53641;44.274;19.890;2023-12-04T11:14:53;3.60;68.60
66728;DHT22;53641;44.274;19.890;2023-12-04T11:17:21;4.40;69.40
66728;DHT22;53641;44.274;19.890;2023-12-04T11:19:55;4.60;69.10
66728;DHT22;53641;44.274;19.890;2023-12-04T11:22:21;4.60;69.00
66728;DHT22;53641;44.274;19.890;2023-12-04T11:24:47;4.80;68.60
66728;DHT22;53641;44.274;19.890;2023-12-04T11:27:18;5.00;68.80
66728;DHT22;53641;44.274;19.890;2023-12-04T11:29:44;4.90;68.60
66728;DHT22;53641;44.274;19.890;2023-12-04T11:32:16;4.90;69.20
66728;DHT22;53641;44.274;19.890;2023-12-04T11:34:50;5.00;68.60
66728;DHT22;53641;44.274;19.890;2023-12-04T11:37:15;5.70;68.90
66728;DHT22;53641;44.274;19.890;2023-12-04T11:39:41;5.20;68.20
66728;DHT22;53641;44.274;19.890;2023-12-04T11:42:07;5.80;68.80
66728;DHT22;53641;44.274;19.890;2023-12-04T11:44:32;5.00;67.70
66728;DHT22;53641;44.274;19.890;2023-12-04T11:47:05;4.90;67.30
66728;DHT22;53641;44.274;19.890;2023-12-04T11:49:31;4.70;67.70
66728;DHT22;53641;44.274;19.890;2023-12-04T11:52:03;4.70;68.00
66728;DHT22;53641;44.274;19.890;2023-12-04T11:54:37;4.70;68.70
66728;DHT22;53641;44.274;19.890;2023-12-04T11:57:22;4.80;68.60
66728;DHT22;53641;44.274;19.890;2023-12-04T11:59:49;4.80;68.00
66728;DHT22;53641;44.274;19.890;2023-12-04T12:02:15;4.70;68.20
66728;DHT22;53641;44.274;19.890;2023-12-04T12:04:41;5.10;68.90
66728;DHT22;53641;44.274;19.890;2023-12-04T12:07:07;4.80;68.40
66728;DHT22;53641;44.274;19.890;2023-12-04T12:09:38;4.80;67.90
66728;DHT22;53641;44.274;19.890;2023-12-04T12:12:04;4.90;68.70
66728;DHT22;53641;44.274;19.890;2023-12-04T12:14:30;4.80;68.20
66728;DHT22;53641;44.274;19.890;2023-12-04T12:17:00;4.90;68.90
66728;DHT22;53641;44.274;19.890;2023-12-04T12:19:26;4.80;68.20
66728;DHT22;53641;44.274;19.890;2023-12-04T12:21:52;5.10;68.50
66728;DHT22;53641;44.274;19.890;2023-12-04T12:24:18;5.00;67.80
66728;DHT22;53641;44.274;19.890;2023-12-04T12:26:44;5.10;68.30
66728;DHT22;53641;44.274;19.890;2023-12-04T12:29:10;5.10;68.40
66728;DHT22;53641;44.274;19.890;2023-12-04T12:31:36;6.00;68.90
66728;DHT22;53641;44.274;19.890;2023-12-04T12:34:02;5.10;68.80
66728;DHT22;53641;44.274;19.890;2023-12-04T12:36:28;5.60;69.10
66728;DHT22;53641;44.274;19.890;2023-12-04T12:38:59;5.10;68.90
66728;DHT22;53641;44.274;19.890;2023-12-04T12:41:25;4.90;69.00
66728;DHT22;53641;44.274;19.890;2023-12-04T12:43:52;5.90;68.80
66728;DHT22;53641;44.274;19.890;2023-12-04T12:46:18;5.30;69.00
66728;DHT22;53641;44.274;19.890;2023-12-04T12:48:44;5.80;68.40
66728;DHT22;53641;44.274;19.890;2023-12-04T12:51:12;5.40;68.10
66728;DHT22;53641;44.274;19.890;2023-12-04T12:53:38;5.40;69.00
66728;DHT22;53641;44.274;19.890;2023-12-04T12:56:04;5.40;68.60
66728;DHT22;53641;44.274;19.890;2023-12-04T12:58:29;5.30;68.00
66728;DHT22;53641;44.274;19.890;2023-12-04T13:00:55;5.20;68.40
66728;DHT22;53641;44.274;19.890;2023-12-04T13:03:21;5.40;68.50
66728;DHT22;53641;44.274;19.890;2023-12-04T13:05:47;5.10;68.00
66728;DHT22;53641;44.274;19.890;2023-12-04T13:08:14;5.90;67.40
66728;DHT22;53641;44.274;19.890;2023-12-04T13:10:42;5.20;66.90
66728;DHT22;53641;44.274;19.890;2023-12-04T13:13:11;5.70;66.70
66728;DHT22;53641;44.274;19.890;2023-12-04T13:15:37;5.30;67.80
66728;DHT22;53641;44.274;19.890;2023-12-04T13:18:03;5.40;67.20
66728;DHT22;53641;44.274;19.890;2023-12-04T13:20:29;5.20;67.20
66728;DHT22;53641;44.274;19.890;2023-12-04T13:22:54;5.10;67.10
66728;DHT22;53641;44.274;19.890;2023-12-04T13:25:20;5.10;67.10
66728;DHT22;53641;44.274;19.890;2023-12-04T13:27:46;5.20;67.80
66728;DHT22;53641;44.274;19.890;2023-12-04T13:30:12;5.20;67.10
66728;DHT22;53641;44.274;19.890;2023-12-04T13:32:38;5.30;67.30
66728;DHT22;53641;44.274;19.890;2023-12-04T13:35:06;5.40;67.00
66728;DHT22;53641;44.274;19.890;2023-12-04T13:37:33;5.40;66.60
66728;DHT22;53641;44.274;19.890;2023-12-04T13:39:59;5.40;66.90
66728;DHT22;53641;44.274;19.890;2023-12-04T13:42:29;5.40;67.20
66728;DHT22;53641;44.274;19.890;2023-12-04T13:45:15;5.40;66.30
66728;DHT22;53641;44.274;19.890;2023-12-04T13:47:41;5.30;66.50
66728;DHT22;53641;44.274;19.890;2023-12-04T13:50:07;5.00;65.90
66728;DHT22;53641;44.274;19.890;2023-12-04T13:52:36;5.30;66.40
66728;DHT22;53641;44.274;19.890;2023-12-04T13:55:02;5.60;66.10
66728;DHT22;53641;44.274;19.890;2023-12-04T13:57:37;5.20;66.60
66728;DHT22;53641;44.274;19.890;2023-12-04T14:00:12;5.20;66.50
66728;DHT22;53641;44.274;19.890;2023-12-04T14:02:37;5.10;65.90
66728;DHT22;53641;44.274;19.890;2023-12-04T14:05:03;4.80;65.70
66728;DHT22;53641;44.274;19.890;2023-12-04T14:07:29;5.10;65.40
66728;DHT22;53641;44.274;19.890;2023-12-04T14:09:55;5.10;65.40
66728;DHT22;53641;44.274;19.890;2023-12-04T14:12:20;5.50;65.30
66728;DHT22;53641;44.274;19.890;2023-12-04T14:14:46;5.10;65.10
66728;DHT22;53641;44.274;19.890;2023-12-04T14:17:12;5.10;65.90
66728;DHT22;53641;44.274;19.890;2023-12-04T14:19:38;5.10;65.60
66728;DHT22;53641;44.274;19.890;2023-12-04T14:22:07;5.20;65.80
66728;DHT22;53641;44.274;19.890;2023-12-04T14:24:33;5.20;65.80
66728;DHT22;53641;44.274;19.890;2023-12-04T14:27:00;5.50;65.90
66728;DHT22;53641;44.274;19.890;2023-12-04T14:29:26;4.90;65.60
66728;DHT22;53641;44.274;19.890;2023-12-04T14:31:52;5.60;66.60
66728;DHT22;53641;44.274;19.890;2023-12-04T14:34:17;5.20;66.30
66728;DHT22;53641;44.274;19.890;2023-12-04T14:36:43;5.20;66.20
66728;DHT22;53641;44.274;19.890;2023-12-04T14:39:09;5.10;66.20
66728;DHT22;53641;44.274;19.890;2023-12-04T14:41:36;5.10;66.00
66728;DHT22;53641;44.274;19.890;2023-12-04T14:44:01;5.10;66.30
66728;DHT22;53641;44.274;19.890;2023-12-04T14:46:28;4.90;66.30
66728;DHT22;53641;44.274;19.890;2023-12-04T14:48:53;5.00;66.80
66728;DHT22;53641;44.274;19.890;2023-12-04T14:51:19;4.90;67.00
66728;DHT22;53641;44.274;19.890;2023-12-04T14:53:45;4.90;67.00
66728;DHT22;53641;44.274;19.890;2023-12-04T14:56:30;4.70;66.70
66728;DHT22;53641;44.274;19.890;2023-12-04T14:59:16;4.70;67.20
66728;DHT22;53641;44.274;19.890;2023-12-04T15:02:01;4.60;67.50
66728;DHT22;53641;44.274;19.890;2023-12-04T15:04:47;4.50;67.80
66728;DHT22;53641;44.274;19.890;2023-12-04T15:07:32;4.40;68.00
66728;DHT22;53641;44.274;19.890;2023-12-04T15:10:18;4.30;68.40
66728;DHT22;53641;44.274;19.890;2023-12-04T15:13:03;4.30;68.30
66728;DHT22;53641;44.274;19.890;2023-12-04T15:15:49;4.30;68.40
66728;DHT22;53641;44.274;19.890;2023-12-04T15:18:34;4.50;68.70
66728;DHT22;53641;44.274;19.890;2023-12-04T15:21:18;4.20;68.80
66728;DHT22;53641;44.274;19.890;2023-12-04T15:23:44;4.50;69.80
66728;DHT22;53641;44.274;19.890;2023-12-04T15:26:12;4.20;69.60